sensor_id;sensor_type;location;lat;lon;timestamp;pressure;altitude;pressure_sealevel;temperature;humidity
24868;BME280;12941;48.698;9.310;2023-09-12T00:00:56;97509;;;26.58;54.593
24868;BME280;12941;48.698;9.310;2023-09-12T00:02:01;97504;;;26.56;54.702
24868;BME280;12941;48.698;9.310;2023-09-12T00:03:01;97507.4;;;26.57;54.815
24868;BME280;12941;48.698;9.310;2023-09-12T00:04:01;97501.2;;;26.58;54.861
24868;BME280;12941;48.698;9.310;2023-09-12T00:05:01;97500.09999999999;;;26.59;54.784
24868;BME280;12941;48.698;9.310;2023-09-12T00:06:01;97500.09999999999;;;26.59;54.661
24868;BME280;12941;48.698;9.310;2023-09-12T00:07:06;97501.8;;;26.6;54.785
24868;BME280;12941;48.698;9.310;2023-09-12T00:08:06;97497.29999999999;;;26.6;54.842
24868;BME280;12941;48.698;9.310;2023-09-12T00:09:11;97503.4;;;26.61;55.01
24868;BME280;12941;48.698;9.310;2023-09-12T00:10:16;97502.8;;;26.59;54.952
24868;BME280;12941;48.698;9.310;2023-09-12T00:11:16;97500.3;;;26.57;54.938
24868;BME280;12941;48.698;9.310;2023-09-12T00:12:16;97503.2;;;26.56;54.859
24868;BME280;12941;48.698;9.310;2023-09-12T00:13:16;97499.1;;;26.53;54.811
24868;BME280;12941;48.698;9.310;2023-09-12T00:14:21;97499.1;;;26.53;54.878
24868;BME280;12941;48.698;9.310;2023-09-12T00:15:26;97496.7;;;26.52;54.854
24868;BME280;12941;48.698;9.310;2023-09-12T00:16:26;97494;;;26.52;54.977
24868;BME280;12941;48.698;9.310;2023-09-12T00:17:31;97498.5;;;26.51;54.875
24868;BME280;12941;48.698;9.310;2023-09-12T00:18:31;97492.6;;;26.49;54.918
24868;BME280;12941;48.698;9.310;2023-09-12T00:19:36;97490.20000000001;;;26.48;54.859
24868;BME280;12941;48.698;9.310;2023-09-12T00:20:36;97492;;;26.47;54.858
24868;BME280;12941;48.698;9.310;2023-09-12T00:21:41;97488.5;;;26.47;54.848
24868;BME280;12941;48.698;9.310;2023-09-12T00:22:41;97491.2;;;26.47;54.926
24868;BME280;12941;48.698;9.310;2023-09-12T00:23:46;97488.5;;;26.47;55.194
24868;BME280;12941;48.698;9.310;2023-09-12T00:24:51;97483.3;;;26.47;55.004
24868;BME280;12941;48.698;9.310;2023-09-12T00:25:51;97477.20000000001;;;26.46;55.127
24868;BME280;12941;48.698;9.310;2023-09-12T00:26:51;97482.5;;;26.46;55.037
24868;BME280;12941;48.698;9.310;2023-09-12T00:27:56;97484.1;;;26.47;55.194
24868;BME280;12941;48.698;9.310;2023-09-12T00:29:01;97485.7;;;26.48;55.253
24868;BME280;12941;48.698;9.310;2023-09-12T00:30:02;97487.3;;;26.49;55.242
24868;BME280;12941;48.698;9.310;2023-09-12T00:31:01;97483.90000000001;;;26.49;55.073
24868;BME280;12941;48.698;9.310;2023-09-12T00:32:01;97481.5;;;26.47;55.127
24868;BME280;12941;48.698;9.310;2023-09-12T00:33:06;97486.90000000001;;;26.46;55.148
24868;BME280;12941;48.698;9.310;2023-09-12T00:34:06;97487.3;;;26.42;55.065
24868;BME280;12941;48.698;9.310;2023-09-12T00:35:06;97483.4;;;26.38;55.307
24868;BME280;12941;48.698;9.310;2023-09-12T00:36:06;97482;;;26.36;55.091
24868;BME280;12941;48.698;9.310;2023-09-12T00:37:11;97485.79999999999;;;26.33;54.943
24868;BME280;12941;48.698;9.310;2023-09-12T00:38:11;97482.6;;;26.31;54.873
24868;BME280;12941;48.698;9.310;2023-09-12T00:39:11;97485.6;;;26.28;54.725
24868;BME280;12941;48.698;9.310;2023-09-12T00:40:11;97481.3;;;26.27;54.901
24868;BME280;12941;48.698;9.310;2023-09-12T00:41:16;97481.5;;;26.26;54.912
24868;BME280;12941;48.698;9.310;2023-09-12T00:42:16;97486;;;26.25;54.989
24868;BME280;12941;48.698;9.310;2023-09-12T00:43:17;97482.7;;;26.23;55.311
24868;BME280;12941;48.698;9.310;2023-09-12T00:44:21;97486.3;;;26.22;55.31
24868;BME280;12941;48.698;9.310;2023-09-12T00:45:27;97486.5;;;26.21;55.353
24868;BME280;12941;48.698;9.310;2023-09-12T00:46:27;97486.7;;;26.19;55.262
24868;BME280;12941;48.698;9.310;2023-09-12T00:47:31;97486.90000000001;;;26.18;55.17
24868;BME280;12941;48.698;9.310;2023-09-12T00:48:31;97490.7;;;26.15;54.921
24868;BME280;12941;48.698;9.310;2023-09-12T00:49:32;97487.5;;;26.13;54.717
24868;BME280;12941;48.698;9.310;2023-09-12T00:50:36;97490.3;;;26.11;54.369
24868;BME280;12941;48.698;9.310;2023-09-12T00:51:42;97485.40000000001;;;26.08;53.895
24868;BME280;12941;48.698;9.310;2023-09-12T00:52:42;97491.3;;;26.04;54.259
24868;BME280;12941;48.698;9.310;2023-09-12T00:53:47;97485.40000000001;;;26.02;54.334
24868;BME280;12941;48.698;9.310;2023-09-12T00:54:47;97489;;;26.01;54.681
24868;BME280;12941;48.698;9.310;2023-09-12T00:55:53;97492;;;25.98;54.609
24868;BME280;12941;48.698;9.310;2023-09-12T00:56:51;97487;;;25.96;54.775
24868;BME280;12941;48.698;9.310;2023-09-12T00:57:51;97488.2;;;25.94;54.806
24868;BME280;12941;48.698;9.310;2023-09-12T00:58:51;97485.7;;;25.92;55.061
24868;BME280;12941;48.698;9.310;2023-09-12T00:59:52;97488.5;;;25.91;55.093
24868;BME280;12941;48.698;9.310;2023-09-12T01:00:52;97490.20000000001;;;25.92;55.34
24868;BME280;12941;48.698;9.310;2023-09-12T01:01:57;97485.1;;;25.9;55.583
24868;BME280;12941;48.698;9.310;2023-09-12T01:03:02;97488.9;;;25.88;55.792
24868;BME280;12941;48.698;9.310;2023-09-12T01:04:02;97484.7;;;25.87;56.115
24868;BME280;12941;48.698;9.310;2023-09-12T01:05:02;97483;;;25.86;55.991
24868;BME280;12941;48.698;9.310;2023-09-12T01:06:07;97478.8;;;25.85;56.012
24868;BME280;12941;48.698;9.310;2023-09-12T01:07:12;97482.4;;;25.84;56.257
24868;BME280;12941;48.698;9.310;2023-09-12T01:08:12;97488.5;;;25.84;56.269
24868;BME280;12941;48.698;9.310;2023-09-12T01:09:12;97487.3;;;25.87;56.372
24868;BME280;12941;48.698;9.310;2023-09-12T01:10:17;97480.4;;;25.86;56.449
24868;BME280;12941;48.698;9.310;2023-09-12T01:11:22;97478.2;;;25.83;56.312
24868;BME280;12941;48.698;9.310;2023-09-12T01:12:22;97482.6;;;25.82;56.367
24868;BME280;12941;48.698;9.310;2023-09-12T01:13:22;97478.2;;;25.83;56.334
24868;BME280;12941;48.698;9.310;2023-09-12T01:14:27;97481;;;25.81;56.588
24868;BME280;12941;48.698;9.310;2023-09-12T01:15:27;97482;;;25.8;56.544
24868;BME280;12941;48.698;9.310;2023-09-12T01:16:27;97479.5;;;25.78;56.306
24868;BME280;12941;48.698;9.310;2023-09-12T01:17:32;97478.9;;;25.76;56.046
24868;BME280;12941;48.698;9.310;2023-09-12T01:18:32;97481.6;;;25.76;56.281
24868;BME280;12941;48.698;9.310;2023-09-12T01:19:32;97477.09999999999;;;25.77;56.182
24868;BME280;12941;48.698;9.310;2023-09-12T01:20:37;97473.7;;;25.76;56.103
24868;BME280;12941;48.698;9.310;2023-09-12T01:21:52;97470.4;;;25.74;56.379
24868;BME280;12941;48.698;9.310;2023-09-12T01:22:56;97482.9;;;25.72;56.143
24868;BME280;12941;48.698;9.310;2023-09-12T01:23:55;97471.8;;;25.7;56.14
24868;BME280;12941;48.698;9.310;2023-09-12T01:24:56;97472.79999999999;;;25.69;56.194
24868;BME280;12941;48.698;9.310;2023-09-12T01:26:01;97475.59999999999;;;25.68;56.103
24868;BME280;12941;48.698;9.310;2023-09-12T01:26:59;97479.5;;;25.65;56.322
24868;BME280;12941;48.698;9.310;2023-09-12T01:28:02;97481.5;;;25.63;56.253
24868;BME280;12941;48.698;9.310;2023-09-12T01:29:07;97480.8;;;25.61;56.218
24868;BME280;12941;48.698;9.310;2023-09-12T01:30:12;97477.9;;;25.56;56.412
24868;BME280;12941;48.698;9.310;2023-09-12T01:31:12;97488.59999999999;;;25.55;56.354
24868;BME280;12941;48.698;9.310;2023-09-12T01:32:13;97489.8;;;25.52;56.497
24868;BME280;12941;48.698;9.310;2023-09-12T01:33:17;97487.40000000001;;;25.51;56.405
24868;BME280;12941;48.698;9.310;2023-09-12T01:34:17;97490.20000000001;;;25.49;56.727
24868;BME280;12941;48.698;9.310;2023-09-12T01:35:17;97489.4;;;25.49;56.615
24868;BME280;12941;48.698;9.310;2023-09-12T01:36:22;97493.8;;;25.48;56.682
24868;BME280;12941;48.698;9.310;2023-09-12T01:37:27;97489.70000000001;;;25.45;56.779
24868;BME280;12941;48.698;9.310;2023-09-12T01:38:27;97490.5;;;25.46;57.125
24868;BME280;12941;48.698;9.310;2023-09-12T01:39:32;97489.9;;;25.44;57.156
24868;BME280;12941;48.698;9.310;2023-09-12T01:40:38;97494.5;;;25.42;57.309
24868;BME280;12941;48.698;9.310;2023-09-12T01:41:42;97488.7;;;25.4;57.351
24868;BME280;12941;48.698;9.310;2023-09-12T01:42:47;97488;;;25.38;57.526
24868;BME280;12941;48.698;9.310;2023-09-12T01:43:52;97489;;;25.37;57.503
24868;BME280;12941;48.698;9.310;2023-09-12T01:44:57;97484.79999999999;;;25.36;57.647
24868;BME280;12941;48.698;9.310;2023-09-12T01:46:02;97488.4;;;25.35;57.579
24868;BME280;12941;48.698;9.310;2023-09-12T01:47:07;97492.8;;;25.34;57.657
24868;BME280;12941;48.698;9.310;2023-09-12T01:48:12;97492.1;;;25.34;57.578
24868;BME280;12941;48.698;9.310;2023-09-12T01:49:12;97492.1;;;25.34;57.556
24868;BME280;12941;48.698;9.310;2023-09-12T01:50:17;97484.2;;;25.34;57.689
24868;BME280;12941;48.698;9.310;2023-09-12T01:51:22;97488.8;;;25.32;57.832
24868;BME280;12941;48.698;9.310;2023-09-12T01:52:22;97489.8;;;25.31;57.786
24868;BME280;12941;48.698;9.310;2023-09-12T01:53:22;97492.8;;;25.28;57.693
24868;BME280;12941;48.698;9.310;2023-09-12T01:54:27;97495.8;;;25.25;57.957
24868;BME280;12941;48.698;9.310;2023-09-12T01:55:27;97490.09999999999;;;25.21;57.772
24868;BME280;12941;48.698;9.310;2023-09-12T01:56:27;97494.5;;;25.21;57.717
24868;BME280;12941;48.698;9.310;2023-09-12T01:57:32;97499.1;;;25.19;57.692
24868;BME280;12941;48.698;9.310;2023-09-12T01:58:32;97494.9;;;25.18;57.947
24868;BME280;12941;48.698;9.310;2023-09-12T01:59:32;97493.3;;;25.17;57.767
24868;BME280;12941;48.698;9.310;2023-09-12T02:00:37;97493.3;;;25.17;57.867
24868;BME280;12941;48.698;9.310;2023-09-12T02:01:37;97488;;;25.17;57.956
24868;BME280;12941;48.698;9.310;2023-09-12T02:02:42;97487;;;25.18;57.947
24868;BME280;12941;48.698;9.310;2023-09-12T02:03:42;97485.79999999999;;;25.2;58.141
24868;BME280;12941;48.698;9.310;2023-09-12T02:04:51;97490.3;;;25.2;58.006
24868;BME280;12941;48.698;9.310;2023-09-12T02:05:52;97491.9;;;25.21;58.085
24868;BME280;12941;48.698;9.310;2023-09-12T02:06:52;97495.5;;;25.2;58.385
24868;BME280;12941;48.698;9.310;2023-09-12T02:07:52;97490.59999999999;;;25.17;58.391
24868;BME280;12941;48.698;9.310;2023-09-12T02:08:52;97488.4;;;25.14;58.043
24868;BME280;12941;48.698;9.310;2023-09-12T02:09:52;97487;;;25.11;57.872
24868;BME280;12941;48.698;9.310;2023-09-12T02:10:57;97490.7;;;25.08;58.002
24868;BME280;12941;48.698;9.310;2023-09-12T02:11:57;97485.5;;;25.08;57.913
24868;BME280;12941;48.698;9.310;2023-09-12T02:13:02;97483.90000000001;;;25.07;58.046
24868;BME280;12941;48.698;9.310;2023-09-12T02:14:07;97485.5;;;25.08;58.27
24868;BME280;12941;48.698;9.310;2023-09-12T02:15:08;97482.9;;;25.08;58.226
24868;BME280;12941;48.698;9.310;2023-09-12T02:16:12;97483.3;;;25.05;58.188
24868;BME280;12941;48.698;9.310;2023-09-12T02:17:12;97478.4;;;25.02;58.263
24868;BME280;12941;48.698;9.310;2023-09-12T02:18:17;97488.3;;;25;58.537
24868;BME280;12941;48.698;9.310;2023-09-12T02:19:22;97484;;;24.99;58.524
24868;BME280;12941;48.698;9.310;2023-09-12T02:20:27;97494.5;;;24.99;58.536
24868;BME280;12941;48.698;9.310;2023-09-12T02:21:27;97485.6;;;25;58.638
24868;BME280;12941;48.698;9.310;2023-09-12T02:22:32;97487.5;;;25;58.56
24868;BME280;12941;48.698;9.310;2023-09-12T02:23:32;97487.3;;;25.01;58.54
24868;BME280;12941;48.698;9.310;2023-09-12T02:24:37;97491.5;;;25.02;58.474
24868;BME280;12941;48.698;9.310;2023-09-12T02:25:37;97491.7;;;25.01;58.828
24868;BME280;12941;48.698;9.310;2023-09-12T02:26:37;97484;;;24.99;58.77
24868;BME280;12941;48.698;9.310;2023-09-12T02:27:42;97483.7;;;24.94;58.496
24868;BME280;12941;48.698;9.310;2023-09-12T02:28:47;97493.6;;;24.92;58.427
24868;BME280;12941;48.698;9.310;2023-09-12T02:29:47;97473;;;24.89;58.556
24868;BME280;12941;48.698;9.310;2023-09-12T02:30:52;97479.8;;;24.9;58.67
24868;BME280;12941;48.698;9.310;2023-09-12T02:31:52;97478.2;;;24.89;58.823
24868;BME280;12941;48.698;9.310;2023-09-12T02:32:57;97476.59999999999;;;24.88;58.89
24868;BME280;12941;48.698;9.310;2023-09-12T02:33:57;97481.8;;;24.88;58.757
24868;BME280;12941;48.698;9.310;2023-09-12T02:34:57;97480.2;;;24.87;58.943
24868;BME280;12941;48.698;9.310;2023-09-12T02:36:02;97491;;;24.84;58.895
24868;BME280;12941;48.698;9.310;2023-09-12T02:37:02;97488.59999999999;;;24.83;58.848
24868;BME280;12941;48.698;9.310;2023-09-12T02:38:07;97479.3;;;24.8;59.057
24868;BME280;12941;48.698;9.310;2023-09-12T02:39:07;97486.2;;;24.81;58.836
24868;BME280;12941;48.698;9.310;2023-09-12T02:40:08;97479.9;;;24.82;58.792
24868;BME280;12941;48.698;9.310;2023-09-12T02:41:12;97479.9;;;24.82;58.736
24868;BME280;12941;48.698;9.310;2023-09-12T02:42:12;97485.5;;;24.79;58.688
24868;BME280;12941;48.698;9.310;2023-09-12T02:43:17;97481.3;;;24.78;58.697
24868;BME280;12941;48.698;9.310;2023-09-12T02:44:17;97477.4;;;24.74;58.971
24868;BME280;12941;48.698;9.310;2023-09-12T02:45:17;97478.4;;;24.73;58.902
24868;BME280;12941;48.698;9.310;2023-09-12T02:46:17;97472.7;;;24.69;58.921
24868;BME280;12941;48.698;9.310;2023-09-12T02:47:17;97475.5;;;24.68;58.729
24868;BME280;12941;48.698;9.310;2023-09-12T02:48:17;97475.5;;;24.68;59.03
24868;BME280;12941;48.698;9.310;2023-09-12T02:49:22;97474.5;;;24.69;58.965
24868;BME280;12941;48.698;9.310;2023-09-12T02:50:27;97468.7;;;24.67;59.151
24868;BME280;12941;48.698;9.310;2023-09-12T02:51:33;97462.59999999999;;;24.66;59.172
24868;BME280;12941;48.698;9.310;2023-09-12T02:52:37;97477.5;;;24.66;59.139
24868;BME280;12941;48.698;9.310;2023-09-12T02:53:42;97468.9;;;24.65;59.138
24868;BME280;12941;48.698;9.310;2023-09-12T02:54:42;97468.9;;;24.65;59.271
24868;BME280;12941;48.698;9.310;2023-09-12T02:55:42;97472.29999999999;;;24.66;58.827
24868;BME280;12941;48.698;9.310;2023-09-12T02:56:47;97470;;;24.63;58.679
24868;BME280;12941;48.698;9.310;2023-09-12T02:57:52;97469.4;;;24.61;59.133
24868;BME280;12941;48.698;9.310;2023-09-12T02:58:52;97472.40000000001;;;24.58;59.339
24868;BME280;12941;48.698;9.310;2023-09-12T02:59:58;97468.3;;;24.55;59.258
24868;BME280;12941;48.698;9.310;2023-09-12T03:01:02;97470.5;;;24.52;59.332
24868;BME280;12941;48.698;9.310;2023-09-12T03:02:03;97473.5;;;24.49;59.36
24868;BME280;12941;48.698;9.310;2023-09-12T03:03:03;97462.3;;;24.47;59.469
24868;BME280;12941;48.698;9.310;2023-09-12T03:04:07;97470.4;;;24.45;59.546
24868;BME280;12941;48.698;9.310;2023-09-12T03:05:08;97472.2;;;24.44;59.577
24868;BME280;12941;48.698;9.310;2023-09-12T03:06:13;97475.8;;;24.43;59.665
24868;BME280;12941;48.698;9.310;2023-09-12T03:07:13;97476;;;24.42;59.519
24868;BME280;12941;48.698;9.310;2023-09-12T03:08:18;97473.90000000001;;;24.37;59.313
24868;BME280;12941;48.698;9.310;2023-09-12T03:09:18;97477.09999999999;;;24.33;59.118
24868;BME280;12941;48.698;9.310;2023-09-12T03:10:23;97470.9;;;24.26;59.52
24868;BME280;12941;48.698;9.310;2023-09-12T03:11:28;97467.2;;;24.2;59.501
24868;BME280;12941;48.698;9.310;2023-09-12T03:12:28;97468.5;;;24.16;59.618
24868;BME280;12941;48.698;9.310;2023-09-12T03:13:33;97470.5;;;24.14;59.604
24868;BME280;12941;48.698;9.310;2023-09-12T03:14:33;97464.70000000001;;;24.12;60.034
24868;BME280;12941;48.698;9.310;2023-09-12T03:15:35;97466.6;;;24.1;59.776
24868;BME280;12941;48.698;9.310;2023-09-12T03:16:38;97459.79999999999;;;24.09;60.042
24868;BME280;12941;48.698;9.310;2023-09-12T03:17:38;97458.8;;;24.1;59.976
24868;BME280;12941;48.698;9.310;2023-09-12T03:18:38;97459.79999999999;;;24.09;59.986
24868;BME280;12941;48.698;9.310;2023-09-12T03:19:43;97460.40000000001;;;24.11;59.978
24868;BME280;12941;48.698;9.310;2023-09-12T03:20:48;97460.6;;;24.09;60.487
24868;BME280;12941;48.698;9.310;2023-09-12T03:21:53;97464.20000000001;;;24.08;60.452
24868;BME280;12941;48.698;9.310;2023-09-12T03:22:58;97463.7;;;24.05;60.381
24868;BME280;12941;48.698;9.310;2023-09-12T03:24:03;97459.7;;;24.02;60.488
24868;BME280;12941;48.698;9.310;2023-09-12T03:25:08;97466.9;;;24;60.563
24868;BME280;12941;48.698;9.310;2023-09-12T03:26:08;97468.7;;;24;60.606
24868;BME280;12941;48.698;9.310;2023-09-12T03:27:13;97463.5;;;24;60.773
24868;BME280;12941;48.698;9.310;2023-09-12T03:28:13;97455.6;;;24;60.518
24868;BME280;12941;48.698;9.310;2023-09-12T03:29:13;97462.5;;;24.01;60.731
24868;BME280;12941;48.698;9.310;2023-09-12T03:30:19;97463.3;;;24.01;60.731
24868;BME280;12941;48.698;9.310;2023-09-12T03:31:23;97467.5;;;24.02;60.866
24868;BME280;12941;48.698;9.310;2023-09-12T03:32:23;97453.59999999999;;;24.02;60.677
24868;BME280;12941;48.698;9.310;2023-09-12T03:33:28;97460.5;;;24.03;60.745
24868;BME280;12941;48.698;9.310;2023-09-12T03:34:33;97464.09999999999;;;24.02;60.71
24868;BME280;12941;48.698;9.310;2023-09-12T03:35:33;97463.3;;;24.01;60.643
24868;BME280;12941;48.698;9.310;2023-09-12T03:36:33;97466.09999999999;;;24;60.629
24868;BME280;12941;48.698;9.310;2023-09-12T03:37:33;97463.7;;;23.98;60.605
24868;BME280;12941;48.698;9.310;2023-09-12T03:38:38;97460.2;;;23.98;60.748
24868;BME280;12941;48.698;9.310;2023-09-12T03:39:38;97457.6;;;23.98;60.626
24868;BME280;12941;48.698;9.310;2023-09-12T03:40:38;97461.2;;;23.97;60.659
24868;BME280;12941;48.698;9.310;2023-09-12T03:41:43;97468.1;;;23.98;60.56
24868;BME280;12941;48.698;9.310;2023-09-12T03:42:48;97460.2;;;23.98;60.671
24868;BME280;12941;48.698;9.310;2023-09-12T03:43:48;97465.5;;;23.98;60.549
24868;BME280;12941;48.698;9.310;2023-09-12T03:44:48;97462.5;;;24.01;60.521
24868;BME280;12941;48.698;9.310;2023-09-12T03:45:48;97460;;;23.99;60.352
24868;BME280;12941;48.698;9.310;2023-09-12T03:46:53;97463.5;;;24;60.406
24868;BME280;12941;48.698;9.310;2023-09-12T03:47:53;97462.7;;;23.99;60.507
24868;BME280;12941;48.698;9.310;2023-09-12T03:48:58;97450.59999999999;;;23.98;60.683
24868;BME280;12941;48.698;9.310;2023-09-12T03:49:58;97451.2;;;24;60.574
24868;BME280;12941;48.698;9.310;2023-09-12T03:50:58;97449.40000000001;;;24.01;60.731
24868;BME280;12941;48.698;9.310;2023-09-12T03:51:58;97448.40000000001;;;24.02;60.755
24868;BME280;12941;48.698;9.310;2023-09-12T03:53:03;97451;;;24.02;60.811
24868;BME280;12941;48.698;9.310;2023-09-12T03:54:03;97457.3;;;24.01;60.775
24868;BME280;12941;48.698;9.310;2023-09-12T03:55:08;97445.1;;;24;60.707
24868;BME280;12941;48.698;9.310;2023-09-12T03:56:08;97449.40000000001;;;24.01;60.987
24868;BME280;12941;48.698;9.310;2023-09-12T03:57:13;97455.6;;;24;60.851
24868;BME280;12941;48.698;9.310;2023-09-12T03:58:13;97446.1;;;23.99;60.718
24868;BME280;12941;48.698;9.310;2023-09-12T03:59:18;97449.90000000001;;;23.96;60.691
24868;BME280;12941;48.698;9.310;2023-09-12T04:00:23;97450.7;;;23.97;60.737
24868;BME280;12941;48.698;9.310;2023-09-12T04:01:28;97456.3;;;23.94;60.577
24868;BME280;12941;48.698;9.310;2023-09-12T04:02:28;97458.1;;;23.93;60.798
24868;BME280;12941;48.698;9.310;2023-09-12T04:03:33;97464.8;;;23.96;60.558
24868;BME280;12941;48.698;9.310;2023-09-12T04:04:38;97465.59999999999;;;23.96;60.525
24868;BME280;12941;48.698;9.310;2023-09-12T04:05:43;97462.40000000001;;;23.94;60.022
24868;BME280;12941;48.698;9.310;2023-09-12T04:06:43;97463.4;;;23.93;59.953
24868;BME280;12941;48.698;9.310;2023-09-12T04:07:48;97463.9;;;23.89;59.937
24868;BME280;12941;48.698;9.310;2023-09-12T04:08:48;97467.5;;;23.88;59.714
24868;BME280;12941;48.698;9.310;2023-09-12T04:09:53;97467.9;;;23.85;59.831
24868;BME280;12941;48.698;9.310;2023-09-12T04:10:53;97461.8;;;23.84;60.042
24868;BME280;12941;48.698;9.310;2023-09-12T04:11:58;97470;;;23.81;60.149
24868;BME280;12941;48.698;9.310;2023-09-12T04:13:03;97457.9;;;23.8;60.37
24868;BME280;12941;48.698;9.310;2023-09-12T04:14:08;97457.3;;;23.78;60.211
24868;BME280;12941;48.698;9.310;2023-09-12T04:15:08;97465.09999999999;;;23.78;60.622
24868;BME280;12941;48.698;9.310;2023-09-12T04:16:13;97460.2;;;23.75;60.474
24868;BME280;12941;48.698;9.310;2023-09-12T04:17:18;97460.40000000001;;;23.73;60.673
24868;BME280;12941;48.698;9.310;2023-09-12T04:18:18;97469.9;;;23.74;60.883
24868;BME280;12941;48.698;9.310;2023-09-12T04:19:24;97459.40000000001;;;23.74;60.972
24868;BME280;12941;48.698;9.310;2023-09-12T04:20:23;97463;;;23.73;61.194
24868;BME280;12941;48.698;9.310;2023-09-12T04:21:28;97466.7;;;23.72;61.347
24868;BME280;12941;48.698;9.310;2023-09-12T04:22:28;97460.79999999999;;;23.7;61.066
24868;BME280;12941;48.698;9.310;2023-09-12T04:23:33;97462.8;;;23.68;61.175
24868;BME280;12941;48.698;9.310;2023-09-12T04:24:38;97468;;;23.68;61.275
24868;BME280;12941;48.698;9.310;2023-09-12T04:25:41;97465.4;;;23.68;61.175
24868;BME280;12941;48.698;9.310;2023-09-12T04:26:43;97464.4;;;23.69;61.233
24868;BME280;12941;48.698;9.310;2023-09-12T04:27:48;97465.20000000001;;;23.7;61.411
24868;BME280;12941;48.698;9.310;2023-09-12T04:28:48;97467;;;23.69;61.478
24868;BME280;12941;48.698;9.310;2023-09-12T04:29:53;97474.90000000001;;;23.69;61.333
24868;BME280;12941;48.698;9.310;2023-09-12T04:31:00;97468;;;23.68;61.453
24868;BME280;12941;48.698;9.310;2023-09-12T04:31:58;97472.40000000001;;;23.68;61.662
24868;BME280;12941;48.698;9.310;2023-09-12T04:33:04;97470;;;23.66;61.628
24868;BME280;12941;48.698;9.310;2023-09-12T04:34:08;97464.9;;;23.65;61.593
24868;BME280;12941;48.698;9.310;2023-09-12T04:35:08;97461.5;;;23.64;61.658
24868;BME280;12941;48.698;9.310;2023-09-12T04:36:13;97462.3;;;23.65;61.682
24868;BME280;12941;48.698;9.310;2023-09-12T04:37:13;97462.3;;;23.65;61.704
24868;BME280;12941;48.698;9.310;2023-09-12T04:38:18;97462.5;;;23.63;61.944
24868;BME280;12941;48.698;9.310;2023-09-12T04:39:23;97461;;;23.61;61.809
24868;BME280;12941;48.698;9.310;2023-09-12T04:40:28;97458.8;;;23.58;61.86
24868;BME280;12941;48.698;9.310;2023-09-12T04:41:28;97453.09999999999;;;23.54;61.811
24868;BME280;12941;48.698;9.310;2023-09-12T04:42:33;97458.3;;;23.54;61.988
24868;BME280;12941;48.698;9.310;2023-09-12T04:43:33;97455.7;;;23.54;61.788
24868;BME280;12941;48.698;9.310;2023-09-12T04:44:34;97455.7;;;23.54;62.099
24868;BME280;12941;48.698;9.310;2023-09-12T04:45:33;97460.90000000001;;;23.54;62.099
24868;BME280;12941;48.698;9.310;2023-09-12T04:46:33;97455.7;;;23.54;61.8
24868;BME280;12941;48.698;9.310;2023-09-12T04:47:34;97466.2;;;23.54;61.899
24868;BME280;12941;48.698;9.310;2023-09-12T04:48:39;97467;;;23.55;62.044
24868;BME280;12941;48.698;9.310;2023-09-12T04:49:39;97455.7;;;23.54;62.099
24868;BME280;12941;48.698;9.310;2023-09-12T04:50:43;97457;;;23.5;62.193
24868;BME280;12941;48.698;9.310;2023-09-12T04:51:44;97451.09999999999;;;23.48;62.058
24868;BME280;12941;48.698;9.310;2023-09-12T04:52:44;97457.5;;;23.45;62.121
24868;BME280;12941;48.698;9.310;2023-09-12T04:53:48;97454.4;;;23.42;62.127
24868;BME280;12941;48.698;9.310;2023-09-12T04:54:49;97464.3;;;23.4;62.323
24868;BME280;12941;48.698;9.310;2023-09-12T04:55:54;97457.8;;;23.36;62.428
24868;BME280;12941;48.698;9.310;2023-09-12T04:56:54;97457.5;;;23.31;62.532
24868;BME280;12941;48.698;9.310;2023-09-12T04:57:54;97459.2;;;23.24;62.978
24868;BME280;12941;48.698;9.310;2023-09-12T04:58:59;97460.5;;;23.2;63.159
24868;BME280;12941;48.698;9.310;2023-09-12T04:59:59;97455.6;;;23.17;62.923
24868;BME280;12941;48.698;9.310;2023-09-12T05:01:04;97458.6;;;23.13;63.373
24868;BME280;12941;48.698;9.310;2023-09-12T05:02:09;97459.5;;;23.12;63.238
24868;BME280;12941;48.698;9.310;2023-09-12T05:03:09;97461.2;;;23.13;63.528
24868;BME280;12941;48.698;9.310;2023-09-12T05:04:09;97459.5;;;23.12;63.671
24868;BME280;12941;48.698;9.310;2023-09-12T05:05:09;97455.3;;;23.11;63.525
24868;BME280;12941;48.698;9.310;2023-09-12T05:06:14;97453;;;23.08;63.642
24868;BME280;12941;48.698;9.310;2023-09-12T05:07:14;97458.4;;;23.07;63.939
24868;BME280;12941;48.698;9.310;2023-09-12T05:08:19;97461.2;;;23.05;63.948
24868;BME280;12941;48.698;9.310;2023-09-12T05:09:19;97456.4;;;23.02;63.922
24868;BME280;12941;48.698;9.310;2023-09-12T05:10:19;97455.9;;;22.99;64.148
24868;BME280;12941;48.698;9.310;2023-09-12T05:11:24;97454.4;;;22.96;64.102
24868;BME280;12941;48.698;9.310;2023-09-12T05:12:24;97461.5;;;22.96;64.023
24868;BME280;12941;48.698;9.310;2023-09-12T05:13:24;97460.6;;;22.95;64.409
24868;BME280;12941;48.698;9.310;2023-09-12T05:14:24;97459;;;22.94;64.187
24868;BME280;12941;48.698;9.310;2023-09-12T05:15:24;97461.6;;;22.94;64.286
24868;BME280;12941;48.698;9.310;2023-09-12T05:16:24;97457.4;;;22.93;64.439
24868;BME280;12941;48.698;9.310;2023-09-12T05:17:24;97454.5;;;22.88;64.588
24868;BME280;12941;48.698;9.310;2023-09-12T05:18:29;97457.4;;;22.85;64.461
24868;BME280;12941;48.698;9.310;2023-09-12T05:19:29;97459.40000000001;;;22.83;64.58
24868;BME280;12941;48.698;9.310;2023-09-12T05:20:34;97454;;;22.85;64.604
24868;BME280;12941;48.698;9.310;2023-09-12T05:21:39;97457.4;;;22.85;64.516
24868;BME280;12941;48.698;9.310;2023-09-12T05:22:39;97454.8;;;22.85;64.594
24868;BME280;12941;48.698;9.310;2023-09-12T05:23:39;97456.4;;;22.86;64.84
24868;BME280;12941;48.698;9.310;2023-09-12T05:24:44;97459;;;22.86;65.094
24868;BME280;12941;48.698;9.310;2023-09-12T05:25:49;97455.6;;;22.86;64.562